HNL weather

Daniel K Inouye International Airport
Honolulu, Hawaii, United States

Public forecast

Using degrees Fahrenheit for public forecast. Weather courtesy of forecast.io.

Current aviation weather report (METAR) for Daniel K Inouye International Airport

Retrieved 2020/03/30 19:53 UTC (19 minutes ago):

PHNL 301953Z 08013G19KT 10SM FEW025 SCT045 BKN200 26/17 A3006

Aviation forecast (TAF) for Daniel K Inouye International Airport

Retrieved 2020/03/30 18:40 UTC (2 hours ago):

TAF PHNL 301738Z 3018/3124 07009KT P6SM VCSH FEW025 SCT045 BKN200 FM302100 07012G18KT P6SM FEW025 SCT050 BKN200 FM310600 VRB05KT P6SM SCT025 BKN045 FM312000 09010KT P6SM FEW025 SCT045